Estación Meteorológica Peña el Pijo (Robertgarden) [ 11/24/17 15:33:33 CET ]

Fecha Hora Presion(HPa) Temp (°C) Humedad % Rocio (°C) Viento ( m/s) Direccion Lluvia 1Hora(mm) Lluvia 24H(mm) LLuvia Total(mm)
2017-Jun-13 01:01:37 1010.100 17.8 59 9.6         1427.09
2017-Jun-13 02:01:38 1009.900 16.5 62 9.2         1427.09
2017-Jun-13 03:02:00 1009.500 15.3 66 9.0         1427.09
2017-Jun-13 04:02:00 1009.500 13.8 71 8.6         1427.09
2017-Jun-13 05:02:14 1009.100 12.4 75 8.1         1427.09
2017-Jun-13 06:01:56 1009.100 11.6 77 7.7         1427.09
2017-Jun-13 07:01:46 1008.900 10.8 80 7.5         1427.09
2017-Jun-13 08:01:48 1008.900 13.9 82 10.9         1427.09
2017-Jun-13 09:01:45 1009.000 19.2 61 11.5         1427.09
2017-Jun-13 10:01:35 1008.800 25.8 43 12.2         1427.09
2017-Jun-13 11:01:41 1008.300 28.9 34 11.4         1427.09
2017-Jun-13 12:01:41 1008.600 31.5 27 10.1 1.0 SSW     1427.09
2017-Jun-13 13:01:37 1008.700 33.3 26 11.0         1427.09
2017-Jun-13 14:01:45 1008.700 32.5 27 10.9         1427.09
2017-Jun-13 15:01:37 1008.500 32.9 24 9.4         1427.09
2017-Jun-13 16:01:44 1008.200 35.5 23 11.0         1427.09
2017-Jun-13 17:01:56 1007.900 35.2 24 11.3         1427.09
2017-Jun-13 18:01:40 1008.000 33.8 25 10.8         1427.09
2017-Jun-13 19:01:57 1008.000 32.4 26 10.2         1427.09
2017-Jun-13 20:01:42 1008.100 30.8 28 10.0         1427.09
2017-Jun-13 21:01:38 1008.000 26.4 35 9.6         1427.09
2017-Jun-13 22:01:42 1008.700 24.2 38 8.9         1427.09
2017-Jun-13 23:01:53 1009.600 21.4 45 8.9         1427.09

Temperatura Máxima:35°    Temperatura Mínima:10°
Presión Máxima:1010.100 Hpa    Presión Mínima:1007.900 Hpa


Volver